createdAt,value
2018-04-13T00:00:45.715Z,12.30
2018-04-13T00:03:19.443Z,12.20
2018-04-13T00:05:53.022Z,12.10
2018-04-13T00:08:26.632Z,11.90
2018-04-13T00:11:00.406Z,11.70
2018-04-13T00:13:34.120Z,11.60
2018-04-13T00:16:07.728Z,11.60
2018-04-13T00:18:42.197Z,11.60
2018-04-13T00:21:15.993Z,11.60
2018-04-13T00:23:49.589Z,11.40
2018-04-13T00:26:24.158Z,10.90
2018-04-13T00:28:57.927Z,10.90
2018-04-13T00:31:31.456Z,10.70
2018-04-13T00:34:05.113Z,10.70
2018-04-13T00:36:38.662Z,10.60
2018-04-13T00:39:12.271Z,10.40
2018-04-13T00:41:45.771Z,10.50
2018-04-13T00:44:19.311Z,10.40
2018-04-13T00:46:52.901Z,10.50
2018-04-13T00:49:26.584Z,10.50
2018-04-13T00:52:00.143Z,10.60
2018-04-13T00:54:33.679Z,10.50
2018-04-13T00:57:07.997Z,10.30
2018-04-13T00:59:41.589Z,10.30
2018-04-13T01:02:15.126Z,10.20
2018-04-13T01:04:48.631Z,10.20
2018-04-13T01:07:22.311Z,10.10
2018-04-13T01:09:56.847Z,9.90
2018-04-13T01:12:30.395Z,9.90
2018-04-13T01:15:03.904Z,9.60
2018-04-13T01:17:37.512Z,9.60
2018-04-13T01:20:11.118Z,9.10
2018-04-13T01:22:45.457Z,8.80
2018-04-13T01:25:19.150Z,9.00
2018-04-13T01:27:53.441Z,8.90
2018-04-13T01:30:27.051Z,8.90
2018-04-13T01:33:00.574Z,9.10
2018-04-13T01:35:34.193Z,9.20
2018-04-13T01:38:07.749Z,9.30
2018-04-13T01:40:41.342Z,9.40
2018-04-13T01:43:14.956Z,9.30
2018-04-13T01:45:48.559Z,9.30
2018-04-13T01:48:22.162Z,9.30
2018-04-13T01:50:55.765Z,9.20
2018-04-13T01:53:29.335Z,9.30
2018-04-13T01:56:02.908Z,9.40
2018-04-13T01:58:36.488Z,9.50
2018-04-13T02:01:10.200Z,9.50
2018-04-13T02:03:43.730Z,9.50
2018-04-13T02:06:17.389Z,9.40
2018-04-13T02:08:50.965Z,9.50
2018-04-13T02:11:24.584Z,9.30
2018-04-13T02:13:58.184Z,8.60
2018-04-13T02:16:31.773Z,8.60
2018-04-13T02:19:05.341Z,8.60
2018-04-13T02:21:38.886Z,8.50
2018-04-13T02:24:12.460Z,8.70
2018-04-13T02:26:46.007Z,8.90
2018-04-13T02:29:19.690Z,8.90
2018-04-13T02:31:53.221Z,9.10
2018-04-13T02:34:26.838Z,9.10
2018-04-13T02:37:00.369Z,9.20
2018-04-13T02:39:33.933Z,9.10
2018-04-13T02:42:07.525Z,9.10
2018-04-13T02:44:41.160Z,9.10
2018-04-13T02:47:15.485Z,9.30
2018-04-13T02:49:48.980Z,9.30
2018-04-13T02:52:22.528Z,9.30
2018-04-13T02:54:56.074Z,9.30
2018-04-13T02:57:29.579Z,9.30
2018-04-13T03:00:03.183Z,9.20
2018-04-13T03:02:36.841Z,9.40
2018-04-13T03:05:10.357Z,9.40
2018-04-13T03:07:44.012Z,9.30
2018-04-13T03:10:17.585Z,9.30
2018-04-13T03:12:51.107Z,9.30
2018-04-13T03:15:24.770Z,9.30
2018-04-13T03:17:58.322Z,9.30
2018-04-13T03:20:32.019Z,9.30
2018-04-13T03:23:05.572Z,9.20
2018-04-13T03:25:39.996Z,9.20
2018-04-13T03:28:13.755Z,9.10
2018-04-13T03:30:48.041Z,8.90
2018-04-13T03:33:22.244Z,8.90
2018-04-13T03:35:55.976Z,9.10
2018-04-13T03:38:29.575Z,9.20
2018-04-13T03:41:03.151Z,9.30
2018-04-13T03:43:36.772Z,9.30
2018-04-13T03:46:10.362Z,9.20
2018-04-13T03:48:43.889Z,9.20
2018-04-13T03:51:18.156Z,9.10
2018-04-13T03:53:51.788Z,9.10
2018-04-13T03:56:25.357Z,9.00
2018-04-13T03:58:58.957Z,9.00
2018-04-13T04:01:32.493Z,8.90
2018-04-13T04:04:05.989Z,8.90
2018-04-13T04:06:39.548Z,8.90
2018-04-13T04:09:13.148Z,8.90
2018-04-13T04:11:47.424Z,8.80
2018-04-13T04:14:20.962Z,8.80
2018-04-13T04:16:54.491Z,8.60
2018-04-13T04:19:39.886Z,8.50
2018-04-13T04:22:25.402Z,7.90
2018-04-13T04:25:10.996Z,7.70
2018-04-13T04:27:45.317Z,8.00
2018-04-13T04:30:19.013Z,8.00
2018-04-13T04:32:53.351Z,8.20
2018-04-13T04:35:26.839Z,8.10
2018-04-13T04:38:00.423Z,8.20
2018-04-13T04:40:34.047Z,8.10
2018-04-13T04:43:07.621Z,8.00
2018-04-13T04:45:42.074Z,8.10
2018-04-13T04:48:15.752Z,8.00
2018-04-13T04:50:50.103Z,8.30
2018-04-13T04:53:23.799Z,8.30
2018-04-13T04:55:57.417Z,8.40
2018-04-13T04:58:30.992Z,8.50
2018-04-13T05:01:04.672Z,8.50
2018-04-13T05:03:38.211Z,8.40
2018-04-13T05:06:11.932Z,8.20
2018-04-13T05:08:45.422Z,8.30
2018-04-13T05:11:19.028Z,8.40
2018-04-13T05:13:52.590Z,8.50
2018-04-13T05:16:26.131Z,8.50
2018-04-13T05:18:59.711Z,8.50
2018-04-13T05:21:33.445Z,8.70
2018-04-13T05:24:07.014Z,8.80
2018-04-13T05:26:40.759Z,9.00
2018-04-13T05:29:15.028Z,9.40
2018-04-13T05:31:48.670Z,9.40
2018-04-13T05:34:22.223Z,9.50
2018-04-13T05:36:55.752Z,9.70
2018-04-13T05:39:29.502Z,9.90
2018-04-13T05:42:03.142Z,10.10
2018-04-13T05:44:36.731Z,10.10
2018-04-13T05:47:10.295Z,9.80
2018-04-13T05:49:43.852Z,9.80
2018-04-13T05:52:17.425Z,10.10
2018-04-13T05:54:50.992Z,10.20
2018-04-13T05:57:24.671Z,10.30
2018-04-13T05:59:58.958Z,11.20
2018-04-13T06:02:32.665Z,11.20
2018-04-13T06:05:06.285Z,11.60
2018-04-13T06:07:39.861Z,11.70
2018-04-13T06:10:13.385Z,11.90
2018-04-13T06:12:46.898Z,11.90
2018-04-13T06:15:20.483Z,11.90
2018-04-13T06:17:54.051Z,11.80
2018-04-13T06:20:28.331Z,11.80
2018-04-13T06:23:02.715Z,11.90
2018-04-13T06:25:37.217Z,11.90
2018-04-13T06:28:10.894Z,11.80
2018-04-13T06:30:44.424Z,11.90
2018-04-13T06:33:18.847Z,11.80
2018-04-13T06:35:52.546Z,11.80
2018-04-13T06:38:26.253Z,11.80
2018-04-13T06:40:59.777Z,11.80
2018-04-13T06:43:33.372Z,11.80
2018-04-13T06:46:06.942Z,11.70
2018-04-13T06:48:40.566Z,11.70
2018-04-13T06:51:14.140Z,11.70
2018-04-13T06:53:47.746Z,11.80
2018-04-13T06:56:21.251Z,12.00
2018-04-13T06:58:54.854Z,12.30
2018-04-13T07:01:28.389Z,12.40
2018-04-13T07:04:01.958Z,12.60
2018-04-13T07:06:35.543Z,12.90
2018-04-13T07:09:09.075Z,12.90
2018-04-13T07:11:42.574Z,12.90
2018-04-13T07:14:16.083Z,13.10
2018-04-13T07:16:49.627Z,13.10
2018-04-13T07:19:23.169Z,13.10
2018-04-13T07:21:56.675Z,13.30
2018-04-13T07:24:30.272Z,13.20
2018-04-13T07:27:03.816Z,13.40
2018-04-13T07:29:37.357Z,13.50
2018-04-13T07:32:10.914Z,13.30
2018-04-13T07:34:44.451Z,13.10
2018-04-13T07:37:18.011Z,13.20
2018-04-13T07:39:52.363Z,13.60
2018-04-13T07:42:25.890Z,13.50
2018-04-13T07:44:59.680Z,13.50
2018-04-13T07:47:33.461Z,13.70
2018-04-13T07:50:07.289Z,13.90
2018-04-13T07:52:40.494Z,13.50
2018-04-13T07:55:14.047Z,13.50
2018-04-13T07:57:47.587Z,13.30
2018-04-13T08:00:21.888Z,13.80
2018-04-13T08:02:55.579Z,13.80
2018-04-13T08:05:29.199Z,14.00
2018-04-13T08:08:02.755Z,13.90
2018-04-13T08:10:36.289Z,13.70
2018-04-13T08:13:09.802Z,13.90
2018-04-13T08:15:43.353Z,13.90
2018-04-13T08:18:16.956Z,14.20
2018-04-13T08:20:50.476Z,14.30
2018-04-13T08:23:24.030Z,14.30
2018-04-13T08:25:57.573Z,14.40
2018-04-13T08:28:31.181Z,14.50
2018-04-13T08:31:04.788Z,14.30
2018-04-13T08:33:38.290Z,14.30
2018-04-13T08:36:11.862Z,14.10
2018-04-13T08:38:45.427Z,14.00
2018-04-13T08:41:18.968Z,14.40
2018-04-13T08:43:52.574Z,14.50
2018-04-13T08:46:26.124Z,14.30
2018-04-13T08:48:59.736Z,14.40
2018-04-13T08:51:33.240Z,14.60
2018-04-13T08:54:06.950Z,15.00
2018-04-13T08:56:40.519Z,15.20
2018-04-13T08:59:14.802Z,14.90
2018-04-13T09:01:48.386Z,14.90
2018-04-13T09:04:21.935Z,14.90
2018-04-13T09:06:55.553Z,14.60
2018-04-13T09:09:29.031Z,14.70
2018-04-13T09:12:03.350Z,14.80
2018-04-13T09:14:39.868Z,14.80
2018-04-13T09:17:13.415Z,14.70
2018-04-13T09:19:46.995Z,14.60
2018-04-13T09:22:20.538Z,14.50
2018-04-13T09:24:54.090Z,14.40
2018-04-13T09:27:27.681Z,14.50
2018-04-13T09:30:01.219Z,14.50
2018-04-13T09:32:34.787Z,14.60
2018-04-13T09:35:08.348Z,14.70
2018-04-13T09:37:41.931Z,14.70
2018-04-13T09:40:15.499Z,14.80
2018-04-13T09:42:49.025Z,14.90
2018-04-13T09:45:22.557Z,15.10
2018-04-13T09:47:56.075Z,15.20
2018-04-13T09:50:29.566Z,15.40
2018-04-13T09:53:03.194Z,15.60
2018-04-13T09:55:36.767Z,15.70
2018-04-13T09:58:11.090Z,16.40
2018-04-13T10:00:45.520Z,16.00
2018-04-13T10:03:20.909Z,16.00
2018-04-13T10:05:54.608Z,16.10
2018-04-13T10:08:28.155Z,16.20
2018-04-13T10:11:01.861Z,16.00
2018-04-13T10:13:35.379Z,16.20
2018-04-13T10:16:08.934Z,16.40
2018-04-13T10:18:42.579Z,16.70
2018-04-13T10:21:16.373Z,16.80
2018-04-13T10:23:49.985Z,16.90
2018-04-13T10:26:23.734Z,16.30
2018-04-13T10:28:57.338Z,16.20
2018-04-13T10:31:30.883Z,16.40
2018-04-13T10:34:05.224Z,16.50
2018-04-13T10:36:38.919Z,16.50
2018-04-13T10:39:12.495Z,16.60
2018-04-13T10:41:46.805Z,17.10
2018-04-13T10:44:20.521Z,17.10
2018-04-13T10:46:54.096Z,16.90
2018-04-13T10:49:27.681Z,16.90
2018-04-13T10:52:01.939Z,16.40
2018-04-13T10:54:35.594Z,16.30
2018-04-13T10:57:09.130Z,16.40
2018-04-13T10:59:42.735Z,16.70
2018-04-13T11:02:16.251Z,16.80
2018-04-13T11:04:50.537Z,16.20
2018-04-13T11:07:24.219Z,16.20
2018-04-13T11:09:57.769Z,16.30
2018-04-13T11:12:31.328Z,16.50
2018-04-13T11:15:04.899Z,16.70
2018-04-13T11:17:38.385Z,16.80
2018-04-13T11:20:11.995Z,16.80
2018-04-13T11:22:45.622Z,17.00
2018-04-13T11:25:19.259Z,17.20
2018-04-13T11:27:52.794Z,17.70
2018-04-13T11:30:26.354Z,17.90
2018-04-13T11:32:59.949Z,18.20
2018-04-13T11:35:34.299Z,18.40
2018-04-13T11:38:07.936Z,18.40
2018-04-13T11:40:41.500Z,18.30
2018-04-13T11:43:15.055Z,17.90
2018-04-13T11:45:48.631Z,17.70
2018-04-13T11:48:22.390Z,17.70
2018-04-13T11:50:55.970Z,17.80
2018-04-13T11:53:29.507Z,17.90
2018-04-13T11:56:03.882Z,17.40
2018-04-13T11:58:37.537Z,17.40
2018-04-13T12:01:11.138Z,17.50
2018-04-13T12:03:44.718Z,17.20
2018-04-13T12:06:18.270Z,17.10
2018-04-13T12:08:51.906Z,16.90
2018-04-13T12:11:26.238Z,17.00
2018-04-13T12:13:59.895Z,17.00
2018-04-13T12:16:33.507Z,17.10
2018-04-13T12:19:07.095Z,17.00
2018-04-13T12:21:40.752Z,16.90
2018-04-13T12:24:14.314Z,16.90
2018-04-13T12:26:47.934Z,16.90
2018-04-13T12:29:22.232Z,16.60
2018-04-13T12:31:55.912Z,16.60
2018-04-13T12:34:29.436Z,16.40
2018-04-13T12:37:02.957Z,16.30
2018-04-13T12:39:36.551Z,16.30
2018-04-13T12:42:10.132Z,16.40
2018-04-13T12:44:43.751Z,16.40
2018-04-13T12:47:17.358Z,16.30
2018-04-13T12:49:51.675Z,16.20
2018-04-13T12:52:25.375Z,16.20
2018-04-13T12:54:59.904Z,16.40
2018-04-13T12:57:33.379Z,16.40
2018-04-13T13:00:06.986Z,16.60
2018-04-13T13:02:40.695Z,16.60
2018-04-13T13:05:15.000Z,16.30
2018-04-13T13:07:48.719Z,16.30
2018-04-13T13:10:23.035Z,15.60
2018-04-13T13:12:56.713Z,15.60
2018-04-13T13:15:30.336Z,15.30
2018-04-13T13:18:03.887Z,15.30
2018-04-13T13:20:37.416Z,15.40
2018-04-13T13:23:11.175Z,14.70
2018-04-13T13:25:44.847Z,14.70
2018-04-13T13:28:18.328Z,14.60
2018-04-13T13:30:51.932Z,14.50
2018-04-13T13:33:25.525Z,14.40
2018-04-13T13:35:59.044Z,14.30
2018-04-13T13:38:32.649Z,14.00
2018-04-13T13:41:06.181Z,13.80
2018-04-13T13:43:39.872Z,13.80
2018-04-13T13:46:13.433Z,13.80
2018-04-13T13:48:47.771Z,13.70
2018-04-13T13:51:21.454Z,13.70
2018-04-13T13:53:54.989Z,13.70
2018-04-13T13:56:28.651Z,13.70
2018-04-13T13:59:02.969Z,13.20
2018-04-13T14:01:36.662Z,13.20
2018-04-13T14:04:11.102Z,13.00
2018-04-13T14:06:45.600Z,13.00
2018-04-13T14:09:19.224Z,13.00
2018-04-13T14:11:52.837Z,12.90
2018-04-13T14:14:26.434Z,12.60
2018-04-13T14:17:00.016Z,12.50
2018-04-13T14:19:33.619Z,12.70
2018-04-13T14:22:07.933Z,12.40
2018-04-13T14:24:41.452Z,12.30
2018-04-13T14:27:15.015Z,12.40
2018-04-13T14:29:49.460Z,12.20
2018-04-13T14:32:23.170Z,12.20
2018-04-13T14:34:56.725Z,12.00
2018-04-13T14:37:30.261Z,12.00
2018-04-13T14:40:03.854Z,12.20
2018-04-13T14:42:37.406Z,12.10
2018-04-13T14:45:11.038Z,12.10
2018-04-13T14:47:44.584Z,12.30
2018-04-13T14:50:18.201Z,12.50
2018-04-13T14:52:51.901Z,12.60
2018-04-13T14:55:25.586Z,12.60
2018-04-13T14:57:59.067Z,12.60
2018-04-13T15:00:33.494Z,12.70
2018-04-13T15:03:07.211Z,12.70
2018-04-13T15:05:40.754Z,13.00
2018-04-13T15:08:14.359Z,13.20
2018-04-13T15:10:48.012Z,13.20
2018-04-13T15:13:21.696Z,13.10
2018-04-13T15:15:56.011Z,12.90
2018-04-13T15:18:29.714Z,12.80
2018-04-13T15:21:03.230Z,12.90
2018-04-13T15:23:36.720Z,12.80
2018-04-13T15:26:10.233Z,12.60
2018-04-13T15:28:43.737Z,12.50
2018-04-13T15:31:17.420Z,12.20
2018-04-13T15:33:51.012Z,12.10
2018-04-13T15:36:25.321Z,12.10
2018-04-13T15:38:58.889Z,12.10
2018-04-13T15:41:32.445Z,12.00
2018-04-13T15:44:06.042Z,12.00
2018-04-13T15:46:39.548Z,12.20
2018-04-13T15:49:13.838Z,12.70
2018-04-13T15:51:47.500Z,12.70
2018-04-13T15:54:21.017Z,12.90
2018-04-13T15:56:55.347Z,13.10
2018-04-13T15:59:28.980Z,13.10
2018-04-13T16:02:02.552Z,13.20
2018-04-13T16:04:36.187Z,13.30
2018-04-13T16:07:09.780Z,13.30
2018-04-13T16:09:43.295Z,13.20
2018-04-13T16:12:16.965Z,13.00
2018-04-13T16:14:51.489Z,13.10
2018-04-13T16:17:25.217Z,13.10
2018-04-13T16:19:58.723Z,13.10
2018-04-13T16:22:32.288Z,13.10
2018-04-13T16:25:05.936Z,13.20
2018-04-13T16:27:39.462Z,13.30
2018-04-13T16:30:13.092Z,13.30
2018-04-13T16:32:46.656Z,13.20
2018-04-13T16:35:20.192Z,13.20
2018-04-13T16:37:54.512Z,13.30
2018-04-13T16:40:28.034Z,13.30
2018-04-13T16:43:01.600Z,13.20
2018-04-13T16:45:35.194Z,13.20
2018-04-13T16:48:08.801Z,13.20
2018-04-13T16:50:43.126Z,13.40
2018-04-13T16:53:16.850Z,13.40
2018-04-13T16:55:50.449Z,13.40
2018-04-13T16:58:24.048Z,13.50
2018-04-13T17:00:57.616Z,13.50
2018-04-13T17:03:31.242Z,13.50
2018-04-13T17:06:04.854Z,13.50
2018-04-13T17:08:38.439Z,13.50
2018-04-13T17:11:11.950Z,13.60
2018-04-13T17:13:45.537Z,13.60
2018-04-13T17:16:19.116Z,13.50
2018-04-13T17:18:52.719Z,13.50
2018-04-13T17:21:26.318Z,13.40
2018-04-13T17:23:59.901Z,13.40
2018-04-13T17:26:34.263Z,13.40
2018-04-13T17:29:07.991Z,13.40
2018-04-13T17:31:41.575Z,13.50
2018-04-13T17:34:15.130Z,13.50
2018-04-13T17:36:48.624Z,13.50
2018-04-13T17:39:22.362Z,13.50
2018-04-13T17:41:55.949Z,13.40
2018-04-13T17:44:30.677Z,13.20
2018-04-13T17:47:04.406Z,13.10
2018-04-13T17:49:37.880Z,13.10
2018-04-13T17:52:11.411Z,13.00
2018-04-13T17:54:44.954Z,12.90
2018-04-13T17:57:18.560Z,12.70
2018-04-13T17:59:52.081Z,12.50
2018-04-13T18:02:25.675Z,12.40
2018-04-13T18:04:59.260Z,12.30
2018-04-13T18:07:32.810Z,12.10
2018-04-13T18:10:06.379Z,12.00
2018-04-13T18:12:39.984Z,12.00
2018-04-13T18:15:13.575Z,11.90
2018-04-13T18:17:47.103Z,11.80
2018-04-13T18:20:20.618Z,11.70
2018-04-13T18:22:54.185Z,11.70
2018-04-13T18:25:27.790Z,11.70
2018-04-13T18:28:01.351Z,11.50
2018-04-13T18:30:35.283Z,11.30
2018-04-13T18:33:08.974Z,11.20
2018-04-13T18:35:42.606Z,11.20
2018-04-13T18:38:16.188Z,11.00
2018-04-13T18:40:49.935Z,10.90
2018-04-13T18:43:23.494Z,10.90
2018-04-13T18:45:57.093Z,10.80
2018-04-13T18:48:30.684Z,10.70
2018-04-13T18:51:04.179Z,10.60
2018-04-13T18:53:37.727Z,10.50
2018-04-13T18:56:11.414Z,10.40
2018-04-13T18:58:45.009Z,10.30
2018-04-13T19:01:19.049Z,10.30
2018-04-13T19:03:52.699Z,10.40
2018-04-13T19:06:26.317Z,10.30
2018-04-13T19:09:00.630Z,10.20
2018-04-13T19:11:34.303Z,10.20
2018-04-13T19:14:07.863Z,10.00
2018-04-13T19:16:41.423Z,10.00
2018-04-13T19:19:14.946Z,10.00
2018-04-13T19:21:48.452Z,10.00
2018-04-13T19:24:22.019Z,10.00
2018-04-13T19:26:55.617Z,10.00
2018-04-13T19:29:29.333Z,10.00
2018-04-13T19:32:02.832Z,10.00
2018-04-13T19:34:36.419Z,10.20
2018-04-13T19:37:10.045Z,10.30
2018-04-13T19:39:43.595Z,10.40
2018-04-13T19:42:17.316Z,10.30
2018-04-13T19:44:51.008Z,10.30
2018-04-13T19:47:24.548Z,10.20
2018-04-13T19:49:58.138Z,10.10
2018-04-13T19:52:31.734Z,10.10
2018-04-13T19:55:05.356Z,10.00
2018-04-13T19:57:39.231Z,10.10
2018-04-13T20:00:12.891Z,10.20
2018-04-13T20:02:46.389Z,10.20
2018-04-13T20:05:19.936Z,10.20
2018-04-13T20:07:53.590Z,10.10
2018-04-13T20:10:27.260Z,10.10
2018-04-13T20:13:00.766Z,10.10
2018-04-13T20:15:34.322Z,9.90
2018-04-13T20:18:07.888Z,9.80
2018-04-13T20:20:41.436Z,9.70
2018-04-13T20:23:14.929Z,9.60
2018-04-13T20:25:48.524Z,9.60
2018-04-13T20:28:22.123Z,9.50
2018-04-13T20:30:55.679Z,9.50
2018-04-13T20:33:29.214Z,9.50
2018-04-13T20:36:02.848Z,9.50
2018-04-13T20:38:36.430Z,9.60
2018-04-13T20:41:10.029Z,9.60
2018-04-13T20:43:43.640Z,9.80
2018-04-13T20:46:17.188Z,9.60
2018-04-13T20:48:51.508Z,9.50
2018-04-13T20:51:25.212Z,9.50
2018-04-13T20:53:59.576Z,9.30
2018-04-13T20:56:33.327Z,9.30
2018-04-13T20:59:07.770Z,9.20
2018-04-13T21:01:41.321Z,9.20
2018-04-13T21:04:14.898Z,9.20
2018-04-13T21:06:48.591Z,9.20
2018-04-13T21:09:22.155Z,9.10
2018-04-13T21:11:55.716Z,9.10
2018-04-13T21:14:29.281Z,9.00
2018-04-13T21:17:02.777Z,9.00
2018-04-13T21:19:36.420Z,8.90
2018-04-13T21:22:09.977Z,8.80
2018-04-13T21:24:44.434Z,8.50
2018-04-13T21:27:17.962Z,8.50
2018-04-13T21:29:51.526Z,8.50
2018-04-13T21:32:25.116Z,8.30
2018-04-13T21:34:58.702Z,8.30
2018-04-13T21:37:32.319Z,8.30
2018-04-13T21:40:05.917Z,8.20
2018-04-13T21:42:39.459Z,8.20
2018-04-13T21:45:13.113Z,8.10
2018-04-13T21:47:47.573Z,8.10
2018-04-13T21:50:21.178Z,8.10
2018-04-13T21:52:54.786Z,8.10
2018-04-13T21:55:28.406Z,7.90
2018-04-13T21:58:01.959Z,7.80
2018-04-13T22:00:35.536Z,7.80
2018-04-13T22:03:09.136Z,7.80
2018-04-13T22:05:42.668Z,7.70
2018-04-13T22:08:16.230Z,7.50
2018-04-13T22:10:49.922Z,7.50
2018-04-13T22:13:31.221Z,7.60
2018-04-13T22:16:04.882Z,7.60
2018-04-13T22:18:38.474Z,7.60
2018-04-13T22:21:12.560Z,7.50
2018-04-13T22:23:46.164Z,7.50
2018-04-13T22:26:19.895Z,7.50
2018-04-13T22:28:54.168Z,7.40
2018-04-13T22:31:27.691Z,7.40
2018-04-13T22:34:01.186Z,6.90
2018-04-13T22:36:35.475Z,6.70
2018-04-13T22:39:08.975Z,6.70
2018-04-13T22:41:42.582Z,6.70
2018-04-13T22:44:16.117Z,6.50
2018-04-13T22:46:49.688Z,6.50
2018-04-13T22:49:23.309Z,6.40
2018-04-13T22:51:56.958Z,6.40
2018-04-13T22:54:30.539Z,6.40
2018-04-13T22:57:04.328Z,6.30
2018-04-13T22:59:38.811Z,6.40
2018-04-13T23:02:12.375Z,6.30
2018-04-13T23:04:45.950Z,6.40
2018-04-13T23:07:19.445Z,6.30
2018-04-13T23:09:53.018Z,6.20
2018-04-13T23:12:27.442Z,6.10
2018-04-13T23:15:01.026Z,6.10
2018-04-13T23:17:34.555Z,6.00
2018-04-13T23:20:08.165Z,6.00
2018-04-13T23:22:41.824Z,6.00
2018-04-13T23:25:15.409Z,6.00
2018-04-13T23:27:49.013Z,6.10
2018-04-13T23:30:22.625Z,6.40
2018-04-13T23:32:56.947Z,6.60
2018-04-13T23:35:30.679Z,6.60
2018-04-13T23:38:04.979Z,6.70
2018-04-13T23:40:38.572Z,6.60
2018-04-13T23:43:12.082Z,6.50
2018-04-13T23:45:46.392Z,6.20
2018-04-13T23:48:19.958Z,6.20
2018-04-13T23:50:53.488Z,6.20
2018-04-13T23:53:27.068Z,6.10
2018-04-13T23:56:00.820Z,5.90
2018-04-13T23:58:34.378Z,5.90
